sensor_id;sensor_type;location;lat;lon;timestamp;temperature;humidity
66401;HTU21D;53211;45.040;38.788;2022-11-18T00:00:50;15.81;77.11
66401;HTU21D;53211;45.040;38.788;2022-11-18T00:03:17;15.82;77.17
66401;HTU21D;53211;45.040;38.788;2022-11-18T00:05:51;15.85;77.19
66401;HTU21D;53211;45.040;38.788;2022-11-18T00:08:17;15.85;77.28
66401;HTU21D;53211;45.040;38.788;2022-11-18T00:10:43;15.84;77.42
66401;HTU21D;53211;45.040;38.788;2022-11-18T00:13:12;15.81;77.74
66401;HTU21D;53211;45.040;38.788;2022-11-18T00:16:08;15.84;77.77
66401;HTU21D;53211;45.040;38.788;2022-11-18T00:18:35;15.81;78.05
66401;HTU21D;53211;45.040;38.788;2022-11-18T00:21:03;15.80;78.66
66401;HTU21D;53211;45.040;38.788;2022-11-18T00:23:29;15.80;78.92
66401;HTU21D;53211;45.040;38.788;2022-11-18T00:26:00;15.80;79.14
66401;HTU21D;53211;45.040;38.788;2022-11-18T00:28:26;15.78;79.49
66401;HTU21D;53211;45.040;38.788;2022-11-18T00:30:52;15.76;79.64
66401;HTU21D;53211;45.040;38.788;2022-11-18T00:33:17;15.74;79.75
66401;HTU21D;53211;45.040;38.788;2022-11-18T00:35:52;15.70;80.04
66401;HTU21D;53211;45.040;38.788;2022-11-18T00:38:18;15.67;80.62
66401;HTU21D;53211;45.040;38.788;2022-11-18T00:40:44;15.60;81.49
66401;HTU21D;53211;45.040;38.788;2022-11-18T00:43:10;15.58;81.12
66401;HTU21D;53211;45.040;38.788;2022-11-18T00:45:36;15.52;81.65
66401;HTU21D;53211;45.040;38.788;2022-11-18T00:48:02;15.46;81.81
66401;HTU21D;53211;45.040;38.788;2022-11-18T00:50:28;15.40;82.13
66401;HTU21D;53211;45.040;38.788;2022-11-18T00:52:54;15.34;83.14
66401;HTU21D;53211;45.040;38.788;2022-11-18T00:55:20;15.32;83.80
66401;HTU21D;53211;45.040;38.788;2022-11-18T00:57:46;15.26;84.03
66401;HTU21D;53211;45.040;38.788;2022-11-18T01:00:12;15.22;84.61
66401;HTU21D;53211;45.040;38.788;2022-11-18T01:02:38;15.17;85.06
66401;HTU21D;53211;45.040;38.788;2022-11-18T01:05:04;15.14;85.77
66401;HTU21D;53211;45.040;38.788;2022-11-18T01:07:30;15.11;86.21
66401;HTU21D;53211;45.040;38.788;2022-11-18T01:09:56;15.10;87.28
66401;HTU21D;53211;45.040;38.788;2022-11-18T01:12:22;15.04;88.18
66401;HTU21D;53211;45.040;38.788;2022-11-18T01:15:07;14.97;89.02
66401;HTU21D;53211;45.040;38.788;2022-11-18T01:17:33;14.93;88.83
66401;HTU21D;53211;45.040;38.788;2022-11-18T01:19:59;14.88;88.89
66401;HTU21D;53211;45.040;38.788;2022-11-18T01:22:25;14.84;88.79
66401;HTU21D;53211;45.040;38.788;2022-11-18T01:24:51;14.80;88.86
66401;HTU21D;53211;45.040;38.788;2022-11-18T01:27:17;14.80;88.98
66401;HTU21D;53211;45.040;38.788;2022-11-18T01:29:43;14.74;90.55
66401;HTU21D;53211;45.040;38.788;2022-11-18T01:32:09;14.75;89.36
66401;HTU21D;53211;45.040;38.788;2022-11-18T01:34:35;14.74;89.36
66401;HTU21D;53211;45.040;38.788;2022-11-18T01:37:01;14.74;89.18
66401;HTU21D;53211;45.040;38.788;2022-11-18T01:39:27;14.75;89.12
66401;HTU21D;53211;45.040;38.788;2022-11-18T01:41:53;14.75;89.30
66401;HTU21D;53211;45.040;38.788;2022-11-18T01:45:00;14.78;89.19
66401;HTU21D;53211;45.040;38.788;2022-11-18T01:47:30;14.79;88.85
66401;HTU21D;53211;45.040;38.788;2022-11-18T01:49:58;14.81;89.05
66401;HTU21D;53211;45.040;38.788;2022-11-18T01:52:25;14.82;88.99
66401;HTU21D;53211;45.040;38.788;2022-11-18T01:54:57;14.83;88.52
66401;HTU21D;53211;45.040;38.788;2022-11-18T01:57:25;14.85;88.52
66401;HTU21D;53211;45.040;38.788;2022-11-18T01:59:55;14.87;88.46
66401;HTU21D;53211;45.040;38.788;2022-11-18T02:02:23;14.87;88.33
66401;HTU21D;53211;45.040;38.788;2022-11-18T02:04:50;14.89;88.67
66401;HTU21D;53211;45.040;38.788;2022-11-18T02:07:18;14.95;88.71
66401;HTU21D;53211;45.040;38.788;2022-11-18T02:09:45;14.97;88.47
66401;HTU21D;53211;45.040;38.788;2022-11-18T02:12:12;15.03;88.51
66401;HTU21D;53211;45.040;38.788;2022-11-18T02:14:42;15.03;88.51
66401;HTU21D;53211;45.040;38.788;2022-11-18T02:23:30;15.14;88.97
66401;HTU21D;53211;45.040;38.788;2022-11-18T02:28:36;15.18;88.73
66401;HTU21D;53211;45.040;38.788;2022-11-18T02:31:14;15.21;88.48
66401;HTU21D;53211;45.040;38.788;2022-11-18T02:39:44;15.17;88.51
66401;HTU21D;53211;45.040;38.788;2022-11-18T02:42:14;15.16;88.57
66401;HTU21D;53211;45.040;38.788;2022-11-18T02:44:44;15.16;88.73
66401;HTU21D;53211;45.040;38.788;2022-11-18T02:47:12;0.00;88.56
66401;HTU21D;53211;45.040;38.788;2022-11-18T02:49:46;15.21;88.77
66401;HTU21D;53211;45.040;38.788;2022-11-18T02:52:15;15.24;89.00
66401;HTU21D;53211;45.040;38.788;2022-11-18T02:54:43;15.30;88.96
66401;HTU21D;53211;45.040;38.788;2022-11-18T02:57:12;15.37;88.88
66401;HTU21D;53211;45.040;38.788;2022-11-18T02:59:38;15.41;88.73
66401;HTU21D;53211;45.040;38.788;2022-11-18T03:02:04;15.42;88.74
66401;HTU21D;53211;45.040;38.788;2022-11-18T03:04:31;15.43;88.82
66401;HTU21D;53211;45.040;38.788;2022-11-18T03:07:08;15.44;88.82
66401;HTU21D;53211;45.040;38.788;2022-11-18T03:09:38;15.47;88.62
66401;HTU21D;53211;45.040;38.788;2022-11-18T03:14:53;15.53;88.57
66401;HTU21D;53211;45.040;38.788;2022-11-18T03:20:36;15.63;88.33
66401;HTU21D;53211;45.040;38.788;2022-11-18T03:23:12;15.76;87.93
66401;HTU21D;53211;45.040;38.788;2022-11-18T03:28:35;15.98;86.86
66401;HTU21D;53211;45.040;38.788;2022-11-18T03:31:14;16.03;86.40
66401;HTU21D;53211;45.040;38.788;2022-11-18T03:33:56;16.12;85.51
66401;HTU21D;53211;45.040;38.788;2022-11-18T03:36:27;16.17;85.51
66401;HTU21D;53211;45.040;38.788;2022-11-18T03:38:57;16.18;86.61
66401;HTU21D;53211;45.040;38.788;2022-11-18T03:41:25;16.14;86.25
66401;HTU21D;53211;45.040;38.788;2022-11-18T03:43:57;16.17;86.31
66401;HTU21D;53211;45.040;38.788;2022-11-18T03:46:33;16.19;85.83
66401;HTU21D;53211;45.040;38.788;2022-11-18T03:49:03;16.19;85.58
66401;HTU21D;53211;45.040;38.788;2022-11-18T03:51:38;16.21;85.28
66401;HTU21D;53211;45.040;38.788;2022-11-18T03:54:12;16.20;85.00
66401;HTU21D;53211;45.040;38.788;2022-11-18T04:02:15;16.28;85.00
66401;HTU21D;53211;45.040;38.788;2022-11-18T04:04:46;16.27;84.99
66401;HTU21D;53211;45.040;38.788;2022-11-18T04:10:20;16.27;84.91
66401;HTU21D;53211;45.040;38.788;2022-11-18T04:15:40;16.25;84.93
66401;HTU21D;53211;45.040;38.788;2022-11-18T04:18:07;16.24;84.97
66401;HTU21D;53211;45.040;38.788;2022-11-18T04:20:33;16.24;84.94
66401;HTU21D;53211;45.040;38.788;2022-11-18T04:23:00;16.22;84.97
66401;HTU21D;53211;45.040;38.788;2022-11-18T04:25:26;16.18;85.06
66401;HTU21D;53211;45.040;38.788;2022-11-18T04:27:52;16.16;85.06
66401;HTU21D;53211;45.040;38.788;2022-11-18T04:30:19;16.15;85.00
66401;HTU21D;53211;45.040;38.788;2022-11-18T04:32:46;16.13;84.91
66401;HTU21D;53211;45.040;38.788;2022-11-18T04:35:13;16.17;85.01
66401;HTU21D;53211;45.040;38.788;2022-11-18T04:37:39;16.14;84.96
66401;HTU21D;53211;45.040;38.788;2022-11-18T04:40:06;16.16;84.93
66401;HTU21D;53211;45.040;38.788;2022-11-18T04:42:32;16.13;84.99
66401;HTU21D;53211;45.040;38.788;2022-11-18T04:44:58;16.15;84.97
66401;HTU21D;53211;45.040;38.788;2022-11-18T04:47:24;16.13;84.90
66401;HTU21D;53211;45.040;38.788;2022-11-18T04:49:50;16.14;85.01
66401;HTU21D;53211;45.040;38.788;2022-11-18T04:52:20;16.13;85.13
66401;HTU21D;53211;45.040;38.788;2022-11-18T04:54:47;16.13;85.00
66401;HTU21D;53211;45.040;38.788;2022-11-18T04:57:16;16.12;85.21
66401;HTU21D;53211;45.040;38.788;2022-11-18T04:59:42;16.11;85.29
66401;HTU21D;53211;45.040;38.788;2022-11-18T05:02:08;16.14;85.01
66401;HTU21D;53211;45.040;38.788;2022-11-18T05:04:34;16.16;85.00
66401;HTU21D;53211;45.040;38.788;2022-11-18T05:07:02;16.14;85.08
66401;HTU21D;53211;45.040;38.788;2022-11-18T05:09:29;16.07;85.75
66401;HTU21D;53211;45.040;38.788;2022-11-18T05:11:56;15.86;87.19
66401;HTU21D;53211;45.040;38.788;2022-11-18T05:14:42;15.45;89.61
66401;HTU21D;53211;45.040;38.788;2022-11-18T05:17:11;15.44;89.54
66401;HTU21D;53211;45.040;38.788;2022-11-18T05:19:37;15.04;90.28
66401;HTU21D;53211;45.040;38.788;2022-11-18T05:22:05;15.10;89.62
66401;HTU21D;53211;45.040;38.788;2022-11-18T05:24:31;14.65;92.09
66401;HTU21D;53211;45.040;38.788;2022-11-18T05:26:57;14.43;92.12
66401;HTU21D;53211;45.040;38.788;2022-11-18T05:29:23;14.77;89.31
66401;HTU21D;53211;45.040;38.788;2022-11-18T05:31:49;14.50;89.66
66401;HTU21D;53211;45.040;38.788;2022-11-18T05:34:16;14.41;89.34
66401;HTU21D;53211;45.040;38.788;2022-11-18T05:36:44;14.49;88.09
66401;HTU21D;53211;45.040;38.788;2022-11-18T05:39:12;14.30;88.57
66401;HTU21D;53211;45.040;38.788;2022-11-18T05:41:38;14.35;87.61
66401;HTU21D;53211;45.040;38.788;2022-11-18T05:44:22;14.34;87.03
66401;HTU21D;53211;45.040;38.788;2022-11-18T05:46:48;14.08;86.43
66401;HTU21D;53211;45.040;38.788;2022-11-18T05:49:14;14.30;86.00
66401;HTU21D;53211;45.040;38.788;2022-11-18T05:51:40;14.23;85.55
66401;HTU21D;53211;45.040;38.788;2022-11-18T05:54:08;14.07;84.93
66401;HTU21D;53211;45.040;38.788;2022-11-18T05:56:39;13.89;84.74
66401;HTU21D;53211;45.040;38.788;2022-11-18T05:59:06;14.07;84.93
66401;HTU21D;53211;45.040;38.788;2022-11-18T06:01:59;14.12;84.58
66401;HTU21D;53211;45.040;38.788;2022-11-18T06:04:30;14.08;83.58
66401;HTU21D;53211;45.040;38.788;2022-11-18T06:07:06;14.13;83.52
66401;HTU21D;53211;45.040;38.788;2022-11-18T06:09:37;14.20;83.48
66401;HTU21D;53211;45.040;38.788;2022-11-18T06:12:05;14.18;82.97
66401;HTU21D;53211;45.040;38.788;2022-11-18T06:17:03;14.19;82.94
66401;HTU21D;53211;45.040;38.788;2022-11-18T06:19:32;14.28;82.79
66401;HTU21D;53211;45.040;38.788;2022-11-18T06:21:58;13.91;82.88
66401;HTU21D;53211;45.040;38.788;2022-11-18T06:24:24;14.06;82.62
66401;HTU21D;53211;45.040;38.788;2022-11-18T06:26:51;14.00;82.55
66401;HTU21D;53211;45.040;38.788;2022-11-18T06:29:17;13.91;83.52
66401;HTU21D;53211;45.040;38.788;2022-11-18T06:31:44;13.83;83.50
66401;HTU21D;53211;45.040;38.788;2022-11-18T06:34:10;13.67;83.44
66401;HTU21D;53211;45.040;38.788;2022-11-18T06:36:36;13.80;83.56
66401;HTU21D;53211;45.040;38.788;2022-11-18T06:39:03;13.78;83.55
66401;HTU21D;53211;45.040;38.788;2022-11-18T06:41:30;13.69;83.75
66401;HTU21D;53211;45.040;38.788;2022-11-18T06:43:56;13.82;83.57
66401;HTU21D;53211;45.040;38.788;2022-11-18T06:46:22;13.40;84.88
66401;HTU21D;53211;45.040;38.788;2022-11-18T06:49:06;13.23;85.78
66401;HTU21D;53211;45.040;38.788;2022-11-18T06:51:32;13.23;86.58
66401;HTU21D;53211;45.040;38.788;2022-11-18T06:53:58;13.02;86.54
66401;HTU21D;53211;45.040;38.788;2022-11-18T06:56:24;13.18;87.40
66401;HTU21D;53211;45.040;38.788;2022-11-18T06:58:54;12.96;88.25
66401;HTU21D;53211;45.040;38.788;2022-11-18T07:01:26;12.80;88.29
66401;HTU21D;53211;45.040;38.788;2022-11-18T07:03:52;12.82;90.97
66401;HTU21D;53211;45.040;38.788;2022-11-18T07:06:21;12.71;91.02
66401;HTU21D;53211;45.040;38.788;2022-11-18T07:08:48;12.61;91.67
66401;HTU21D;53211;45.040;38.788;2022-11-18T07:11:17;12.70;91.74
66401;HTU21D;53211;45.040;38.788;2022-11-18T07:13:44;12.76;90.86
66401;HTU21D;53211;45.040;38.788;2022-11-18T07:16:13;12.85;90.75
66401;HTU21D;53211;45.040;38.788;2022-11-18T07:18:40;12.85;89.75
66401;HTU21D;53211;45.040;38.788;2022-11-18T07:21:09;12.91;89.54
66401;HTU21D;53211;45.040;38.788;2022-11-18T07:23:36;13.06;89.73
66401;HTU21D;53211;45.040;38.788;2022-11-18T07:26:02;13.10;89.16
66401;HTU21D;53211;45.040;38.788;2022-11-18T07:28:29;13.09;87.39
66401;HTU21D;53211;45.040;38.788;2022-11-18T07:31:11;13.32;88.02
66401;HTU21D;53211;45.040;38.788;2022-11-18T07:33:38;13.36;87.27
66401;HTU21D;53211;45.040;38.788;2022-11-18T07:36:07;13.33;86.41
66401;HTU21D;53211;45.040;38.788;2022-11-18T07:38:34;13.39;86.35
66401;HTU21D;53211;45.040;38.788;2022-11-18T07:41:20;13.35;86.19
66401;HTU21D;53211;45.040;38.788;2022-11-18T07:43:50;13.35;86.43
66401;HTU21D;53211;45.040;38.788;2022-11-18T07:46:22;13.06;87.18
66401;HTU21D;53211;45.040;38.788;2022-11-18T07:48:55;12.99;87.28
66401;HTU21D;53211;45.040;38.788;2022-11-18T07:51:23;13.16;86.73
66401;HTU21D;53211;45.040;38.788;2022-11-18T07:53:50;13.05;86.59
66401;HTU21D;53211;45.040;38.788;2022-11-18T07:56:16;13.18;86.56
66401;HTU21D;53211;45.040;38.788;2022-11-18T07:58:43;13.32;86.61
66401;HTU21D;53211;45.040;38.788;2022-11-18T08:03:37;13.68;84.84
66401;HTU21D;53211;45.040;38.788;2022-11-18T08:06:05;13.80;84.73
66401;HTU21D;53211;45.040;38.788;2022-11-18T08:08:31;13.83;84.00
66401;HTU21D;53211;45.040;38.788;2022-11-18T08:10:59;13.99;84.48
66401;HTU21D;53211;45.040;38.788;2022-11-18T08:13:26;13.99;83.97
66401;HTU21D;53211;45.040;38.788;2022-11-18T08:15:53;13.86;84.00
66401;HTU21D;53211;45.040;38.788;2022-11-18T08:18:22;14.04;84.03
66401;HTU21D;53211;45.040;38.788;2022-11-18T08:20:48;13.82;84.08
66401;HTU21D;53211;45.040;38.788;2022-11-18T08:23:15;13.78;84.78
66401;HTU21D;53211;45.040;38.788;2022-11-18T08:25:42;13.80;84.99
66401;HTU21D;53211;45.040;38.788;2022-11-18T08:28:09;9.42;85.29
66401;HTU21D;53211;45.040;38.788;2022-11-18T08:30:36;13.93;84.74
66401;HTU21D;53211;45.040;38.788;2022-11-18T08:33:02;13.77;85.23
66401;HTU21D;53211;45.040;38.788;2022-11-18T08:35:30;13.83;85.32
66401;HTU21D;53211;45.040;38.788;2022-11-18T08:37:57;13.92;85.25
66401;HTU21D;53211;45.040;38.788;2022-11-18T08:40:24;13.97;85.45
66401;HTU21D;53211;45.040;38.788;2022-11-18T08:42:50;14.12;85.01
66401;HTU21D;53211;45.040;38.788;2022-11-18T08:45:16;14.13;83.76
66401;HTU21D;53211;45.040;38.788;2022-11-18T08:47:42;14.32;83.36
66401;HTU21D;53211;45.040;38.788;2022-11-18T08:50:10;14.14;82.94
66401;HTU21D;53211;45.040;38.788;2022-11-18T08:52:36;14.14;82.91
66401;HTU21D;53211;45.040;38.788;2022-11-18T08:55:03;14.20;83.03
66401;HTU21D;53211;45.040;38.788;2022-11-18T08:57:29;13.93;82.90
66401;HTU21D;53211;45.040;38.788;2022-11-18T08:59:55;13.90;83.04
66401;HTU21D;53211;45.040;38.788;2022-11-18T09:02:22;13.92;82.59
66401;HTU21D;53211;45.040;38.788;2022-11-18T09:04:50;13.98;83.04
66401;HTU21D;53211;45.040;38.788;2022-11-18T09:07:17;14.13;83.01
66401;HTU21D;53211;45.040;38.788;2022-11-18T09:09:43;14.10;82.32
66401;HTU21D;53211;45.040;38.788;2022-11-18T09:12:09;14.15;82.27
66401;HTU21D;53211;45.040;38.788;2022-11-18T09:14:45;14.21;81.81
66401;HTU21D;53211;45.040;38.788;2022-11-18T09:17:12;14.25;81.68
66401;HTU21D;53211;45.040;38.788;2022-11-18T09:19:39;14.32;81.77
66401;HTU21D;53211;45.040;38.788;2022-11-18T09:22:06;14.34;81.36
66401;HTU21D;53211;45.040;38.788;2022-11-18T09:24:33;14.48;81.55
66401;HTU21D;53211;45.040;38.788;2022-11-18T09:27:02;14.45;81.43
66401;HTU21D;53211;45.040;38.788;2022-11-18T09:29:29;14.54;81.14
66401;HTU21D;53211;45.040;38.788;2022-11-18T09:31:55;14.52;80.18
66401;HTU21D;53211;45.040;38.788;2022-11-18T09:34:22;14.43;80.11
66401;HTU21D;53211;45.040;38.788;2022-11-18T09:36:48;14.55;79.69
66401;HTU21D;53211;45.040;38.788;2022-11-18T09:39:14;14.53;79.82
66401;HTU21D;53211;45.040;38.788;2022-11-18T09:44:29;14.68;79.24
66401;HTU21D;53211;45.040;38.788;2022-11-18T09:47:26;14.62;79.35
66401;HTU21D;53211;45.040;38.788;2022-11-18T09:50:04;14.94;78.97
66401;HTU21D;53211;45.040;38.788;2022-11-18T09:52:43;15.04;78.74
66401;HTU21D;53211;45.040;38.788;2022-11-18T09:55:16;15.06;78.08
66401;HTU21D;53211;45.040;38.788;2022-11-18T09:57:46;14.82;79.21
66401;HTU21D;53211;45.040;38.788;2022-11-18T10:00:25;14.88;79.12
66401;HTU21D;53211;45.040;38.788;2022-11-18T10:05:51;15.06;79.13
66401;HTU21D;53211;45.040;38.788;2022-11-18T10:08:23;15.21;78.92
66401;HTU21D;53211;45.040;38.788;2022-11-18T10:13:54;15.52;77.63
66401;HTU21D;53211;45.040;38.788;2022-11-18T10:24:44;15.67;76.37
66401;HTU21D;53211;45.040;38.788;2022-11-18T10:27:15;15.68;76.18
66401;HTU21D;53211;45.040;38.788;2022-11-18T10:29:42;15.86;76.78
66401;HTU21D;53211;45.040;38.788;2022-11-18T10:32:13;15.88;75.83
66401;HTU21D;53211;45.040;38.788;2022-11-18T10:39:51;16.03;75.43
66401;HTU21D;53211;45.040;38.788;2022-11-18T10:44:49;16.48;76.06
66401;HTU21D;53211;45.040;38.788;2022-11-18T10:47:22;16.30;73.20
66401;HTU21D;53211;45.040;38.788;2022-11-18T10:49:50;16.21;74.26
66401;HTU21D;53211;45.040;38.788;2022-11-18T10:52:17;16.00;74.68
66401;HTU21D;53211;45.040;38.788;2022-11-18T10:54:43;16.10;74.84
66401;HTU21D;53211;45.040;38.788;2022-11-18T10:57:20;16.20;75.17
66401;HTU21D;53211;45.040;38.788;2022-11-18T10:59:53;16.32;75.47
66401;HTU21D;53211;45.040;38.788;2022-11-18T11:04:54;16.24;75.19
66401;HTU21D;53211;45.040;38.788;2022-11-18T11:07:24;16.13;75.19
66401;HTU21D;53211;45.040;38.788;2022-11-18T11:12:45;16.39;74.32
66401;HTU21D;53211;45.040;38.788;2022-11-18T11:15:17;16.72;73.99
66401;HTU21D;53211;45.040;38.788;2022-11-18T11:17:58;16.72;73.53
66401;HTU21D;53211;45.040;38.788;2022-11-18T11:20:43;16.61;73.82
66401;HTU21D;53211;45.040;38.788;2022-11-18T11:23:14;16.70;73.95
66401;HTU21D;53211;45.040;38.788;2022-11-18T11:25:52;16.44;74.05
66401;HTU21D;53211;45.040;38.788;2022-11-18T11:28:29;16.51;74.70
66401;HTU21D;53211;45.040;38.788;2022-11-18T11:34:10;16.44;74.28
66401;HTU21D;53211;45.040;38.788;2022-11-18T11:44:47;16.41;73.99
66401;HTU21D;53211;45.040;38.788;2022-11-18T11:47:28;16.05;74.76
66401;HTU21D;53211;45.040;38.788;2022-11-18T11:56:26;17.18;71.89
66401;HTU21D;53211;45.040;38.788;2022-11-18T12:06:49;17.88;68.84
66401;HTU21D;53211;45.040;38.788;2022-11-18T12:15:18;17.78;69.97
66401;HTU21D;53211;45.040;38.788;2022-11-18T12:18:01;17.58;69.15
66401;HTU21D;53211;45.040;38.788;2022-11-18T12:23:22;16.98;70.07
66401;HTU21D;53211;45.040;38.788;2022-11-18T12:28:29;16.55;71.91
66401;HTU21D;53211;45.040;38.788;2022-11-18T12:33:44;16.35;72.56
66401;HTU21D;53211;45.040;38.788;2022-11-18T12:36:37;16.24;73.16
66401;HTU21D;53211;45.040;38.788;2022-11-18T12:41:53;16.00;73.73
66401;HTU21D;53211;45.040;38.788;2022-11-18T12:44:38;15.85;74.33
66401;HTU21D;53211;45.040;38.788;2022-11-18T12:47:05;15.75;74.41
66401;HTU21D;53211;45.040;38.788;2022-11-18T12:51:59;15.78;74.09
66401;HTU21D;53211;45.040;38.788;2022-11-18T12:57:02;15.65;74.15
66401;HTU21D;53211;45.040;38.788;2022-11-18T12:59:34;15.67;74.32
66401;HTU21D;53211;45.040;38.788;2022-11-18T13:02:26;15.45;74.82
66401;HTU21D;53211;45.040;38.788;2022-11-18T13:08:02;15.39;74.64
66401;HTU21D;53211;45.040;38.788;2022-11-18T13:13:18;15.26;74.87
66401;HTU21D;53211;45.040;38.788;2022-11-18T13:15:46;15.12;75.50
66401;HTU21D;53211;45.040;38.788;2022-11-18T13:18:30;15.07;75.47
66401;HTU21D;53211;45.040;38.788;2022-11-18T13:20:59;15.04;75.34
66401;HTU21D;53211;45.040;38.788;2022-11-18T13:23:45;14.95;76.88
66401;HTU21D;53211;45.040;38.788;2022-11-18T13:26:20;14.96;75.59
66401;HTU21D;53211;45.040;38.788;2022-11-18T13:31:35;14.79;75.76
66401;HTU21D;53211;45.040;38.788;2022-11-18T13:34:11;14.69;75.72
66401;HTU21D;53211;45.040;38.788;2022-11-18T13:36:42;14.56;75.84
66401;HTU21D;53211;45.040;38.788;2022-11-18T13:39:24;14.44;76.02
66401;HTU21D;53211;45.040;38.788;2022-11-18T13:50:02;13.89;77.02
66401;HTU21D;53211;45.040;38.788;2022-11-18T13:55:00;13.69;77.40
66401;HTU21D;53211;45.040;38.788;2022-11-18T13:57:28;13.61;77.44
66401;HTU21D;53211;45.040;38.788;2022-11-18T13:59:56;13.52;77.47
66401;HTU21D;53211;45.040;38.788;2022-11-18T14:02:24;13.30;81.08
66401;HTU21D;53211;45.040;38.788;2022-11-18T14:04:58;13.24;79.97
66401;HTU21D;53211;45.040;38.788;2022-11-18T14:07:34;13.12;80.32
66401;HTU21D;53211;45.040;38.788;2022-11-18T14:10:03;13.09;78.97
66401;HTU21D;53211;45.040;38.788;2022-11-18T14:12:31;13.02;78.87
66401;HTU21D;53211;45.040;38.788;2022-11-18T14:15:21;12.90;78.96
66401;HTU21D;53211;45.040;38.788;2022-11-18T14:17:59;12.80;78.94
66401;HTU21D;53211;45.040;38.788;2022-11-18T14:20:29;12.71;79.04
66401;HTU21D;53211;45.040;38.788;2022-11-18T14:22:59;12.60;79.95
66401;HTU21D;53211;45.040;38.788;2022-11-18T14:25:31;12.40;83.52
66401;HTU21D;53211;45.040;38.788;2022-11-18T14:33:30;12.27;79.82
66401;HTU21D;53211;45.040;38.788;2022-11-18T14:36:14;12.16;79.88
66401;HTU21D;53211;45.040;38.788;2022-11-18T14:38:48;12.07;79.85
66401;HTU21D;53211;45.040;38.788;2022-11-18T14:41:17;11.99;79.85
66401;HTU21D;53211;45.040;38.788;2022-11-18T14:44:04;11.92;80.08
66401;HTU21D;53211;45.040;38.788;2022-11-18T14:46:30;11.85;80.17
66401;HTU21D;53211;45.040;38.788;2022-11-18T14:48:57;11.78;80.24
66401;HTU21D;53211;45.040;38.788;2022-11-18T14:51:26;11.73;80.30
66401;HTU21D;53211;45.040;38.788;2022-11-18T14:53:56;11.64;80.31
66401;HTU21D;53211;45.040;38.788;2022-11-18T14:56:32;11.57;80.30
66401;HTU21D;53211;45.040;38.788;2022-11-18T14:58:59;11.49;80.43
66401;HTU21D;53211;45.040;38.788;2022-11-18T15:01:25;11.44;80.58
66401;HTU21D;53211;45.040;38.788;2022-11-18T15:03:54;11.38;80.59
66401;HTU21D;53211;45.040;38.788;2022-11-18T15:06:21;11.32;80.65
66401;HTU21D;53211;45.040;38.788;2022-11-18T15:08:49;11.28;80.62
66401;HTU21D;53211;45.040;38.788;2022-11-18T15:11:15;11.24;80.69
66401;HTU21D;53211;45.040;38.788;2022-11-18T15:13:43;11.20;80.94
66401;HTU21D;53211;45.040;38.788;2022-11-18T15:18:38;11.13;81.21
66401;HTU21D;53211;45.040;38.788;2022-11-18T15:21:04;0.00;81.17
66401;HTU21D;53211;45.040;38.788;2022-11-18T15:23:30;11.05;81.31
66401;HTU21D;53211;45.040;38.788;2022-11-18T15:25:58;11.02;81.35
66401;HTU21D;53211;45.040;38.788;2022-11-18T15:28:24;11.00;81.46
66401;HTU21D;53211;45.040;38.788;2022-11-18T15:30:50;10.96;81.65
66401;HTU21D;53211;45.040;38.788;2022-11-18T15:33:16;10.95;81.83
66401;HTU21D;53211;45.040;38.788;2022-11-18T15:35:42;10.94;81.84
66401;HTU21D;53211;45.040;38.788;2022-11-18T15:38:10;10.92;0.00
66401;HTU21D;53211;45.040;38.788;2022-11-18T15:40:36;10.92;82.01
66401;HTU21D;53211;45.040;38.788;2022-11-18T15:43:03;10.89;82.20
66401;HTU21D;53211;45.040;38.788;2022-11-18T15:45:29;10.87;82.33
66401;HTU21D;53211;45.040;38.788;2022-11-18T15:47:55;10.87;82.39
66401;HTU21D;53211;45.040;38.788;2022-11-18T15:50:22;10.84;82.42
66401;HTU21D;53211;45.040;38.788;2022-11-18T15:52:48;10.84;82.46
66401;HTU21D;53211;45.040;38.788;2022-11-18T15:55:14;10.82;82.51
66401;HTU21D;53211;45.040;38.788;2022-11-18T15:57:40;10.81;82.75
66401;HTU21D;53211;45.040;38.788;2022-11-18T16:00:06;10.79;82.84
66401;HTU21D;53211;45.040;38.788;2022-11-18T16:02:37;10.77;82.76
66401;HTU21D;53211;45.040;38.788;2022-11-18T16:05:04;10.72;82.68
66401;HTU21D;53211;45.040;38.788;2022-11-18T16:07:30;10.67;82.64
66401;HTU21D;53211;45.040;38.788;2022-11-18T16:09:56;10.64;82.62
66401;HTU21D;53211;45.040;38.788;2022-11-18T16:12:40;10.62;82.78
66401;HTU21D;53211;45.040;38.788;2022-11-18T16:15:13;10.57;82.77
66401;HTU21D;53211;45.040;38.788;2022-11-18T16:17:58;10.53;82.66
66401;HTU21D;53211;45.040;38.788;2022-11-18T16:20:25;10.46;82.66
66401;HTU21D;53211;45.040;38.788;2022-11-18T16:22:52;10.41;82.63
66401;HTU21D;53211;45.040;38.788;2022-11-18T16:25:22;10.36;82.62
66401;HTU21D;53211;45.040;38.788;2022-11-18T16:27:50;10.29;82.65
66401;HTU21D;53211;45.040;38.788;2022-11-18T16:30:16;10.24;82.69
66401;HTU21D;53211;45.040;38.788;2022-11-18T16:33:00;10.19;82.74
66401;HTU21D;53211;45.040;38.788;2022-11-18T16:35:27;10.16;82.89
66401;HTU21D;53211;45.040;38.788;2022-11-18T16:37:53;10.14;82.93
66401;HTU21D;53211;45.040;38.788;2022-11-18T16:40:20;10.12;82.86
66401;HTU21D;53211;45.040;38.788;2022-11-18T16:42:49;10.09;82.83
66401;HTU21D;53211;45.040;38.788;2022-11-18T16:45:17;10.06;82.84
66401;HTU21D;53211;45.040;38.788;2022-11-18T16:47:43;10.01;82.76
66401;HTU21D;53211;45.040;38.788;2022-11-18T16:50:10;9.98;82.73
66401;HTU21D;53211;45.040;38.788;2022-11-18T16:52:36;0.00;0.00
66401;HTU21D;53211;45.040;38.788;2022-11-18T16:55:02;9.89;82.74
66401;HTU21D;53211;45.040;38.788;2022-11-18T16:57:29;9.85;82.78
66401;HTU21D;53211;45.040;38.788;2022-11-18T16:59:55;9.80;82.77
66401;HTU21D;53211;45.040;38.788;2022-11-18T17:02:21;9.76;82.81
66401;HTU21D;53211;45.040;38.788;2022-11-18T17:04:48;9.74;82.92
66401;HTU21D;53211;45.040;38.788;2022-11-18T17:07:14;9.72;83.03
66401;HTU21D;53211;45.040;38.788;2022-11-18T17:09:42;9.76;83.17
66401;HTU21D;53211;45.040;38.788;2022-11-18T17:12:08;9.82;83.24
66401;HTU21D;53211;45.040;38.788;2022-11-18T17:14:34;9.90;83.19
66401;HTU21D;53211;45.040;38.788;2022-11-18T17:17:03;9.96;83.13
66401;HTU21D;53211;45.040;38.788;2022-11-18T17:19:28;10.01;83.04
66401;HTU21D;53211;45.040;38.788;2022-11-18T17:21:55;10.04;83.00
66401;HTU21D;53211;45.040;38.788;2022-11-18T17:24:21;10.07;82.96
66401;HTU21D;53211;45.040;38.788;2022-11-18T17:26:48;10.08;82.94
66401;HTU21D;53211;45.040;38.788;2022-11-18T17:29:14;10.08;82.95
66401;HTU21D;53211;45.040;38.788;2022-11-18T17:31:41;10.07;82.85
66401;HTU21D;53211;45.040;38.788;2022-11-18T17:34:11;10.07;82.87
66401;HTU21D;53211;45.040;38.788;2022-11-18T17:36:38;10.04;82.83
66401;HTU21D;53211;45.040;38.788;2022-11-18T17:39:04;10.01;82.82
66401;HTU21D;53211;45.040;38.788;2022-11-18T17:41:30;9.98;82.93